sensor_id;sensor_type;location;lat;lon;timestamp;pressure;altitude;pressure_sealevel;temperature;humidity
72157;BME280;60035;52.122;5.406;2024-03-25T00:01:27;100929.03;;;3.62;100.00
72157;BME280;60035;52.122;5.406;2024-03-25T00:03:56;100932.44;;;3.56;100.00
72157;BME280;60035;52.122;5.406;2024-03-25T00:06:24;100937.47;;;3.53;100.00
72157;BME280;60035;52.122;5.406;2024-03-25T00:08:53;100929.03;;;3.53;100.00
72157;BME280;60035;52.122;5.406;2024-03-25T00:11:21;100927.34;;;3.52;100.00
72157;BME280;60035;52.122;5.406;2024-03-25T00:13:50;100931.56;;;3.51;100.00
72157;BME280;60035;52.122;5.406;2024-03-25T00:16:18;100933.28;;;3.52;100.00
72157;BME280;60035;52.122;5.406;2024-03-25T00:18:49;100932.41;;;3.53;100.00
72157;BME280;60035;52.122;5.406;2024-03-25T00:21:18;100929.03;;;3.54;100.00
72157;BME280;60035;52.122;5.406;2024-03-25T00:23:46;100926.50;;;3.53;100.00
72157;BME280;60035;52.122;5.406;2024-03-25T00:26:15;100934.09;;;3.54;100.00
72157;BME280;60035;52.122;5.406;2024-03-25T00:28:45;100924.81;;;3.52;100.00
72157;BME280;60035;52.122;5.406;2024-03-25T00:31:13;100921.44;;;3.49;100.00
72157;BME280;60035;52.122;5.406;2024-03-25T00:33:42;100915.53;;;3.46;100.00
72157;BME280;60035;52.122;5.406;2024-03-25T00:36:10;100913.00;;;3.47;100.00
72157;BME280;60035;52.122;5.406;2024-03-25T00:38:42;100913.00;;;3.44;100.00
72157;BME280;60035;52.122;5.406;2024-03-25T00:41:11;100923.97;;;3.43;100.00
72157;BME280;60035;52.122;5.406;2024-03-25T00:43:39;100922.28;;;3.38;100.00
72157;BME280;60035;52.122;5.406;2024-03-25T00:46:08;100925.66;;;3.33;100.00
72157;BME280;60035;52.122;5.406;2024-03-25T00:48:38;100914.66;;;3.30;100.00
72157;BME280;60035;52.122;5.406;2024-03-25T00:51:09;100910.44;;;3.24;100.00
72157;BME280;60035;52.122;5.406;2024-03-25T00:53:40;100912.94;;;3.20;100.00
72157;BME280;60035;52.122;5.406;2024-03-25T00:56:08;100914.63;;;3.16;100.00
72157;BME280;60035;52.122;5.406;2024-03-25T00:58:39;100915.47;;;3.12;100.00
72157;BME280;60035;52.122;5.406;2024-03-25T01:01:07;100914.63;;;3.10;100.00
72157;BME280;60035;52.122;5.406;2024-03-25T01:03:35;100916.31;;;3.06;100.00
72157;BME280;60035;52.122;5.406;2024-03-25T01:06:11;100928.09;;;3.03;100.00
72157;BME280;60035;52.122;5.406;2024-03-25T01:08:40;100928.09;;;2.96;100.00
72157;BME280;60035;52.122;5.406;2024-03-25T01:11:08;100928.88;;;2.89;100.00
72157;BME280;60035;52.122;5.406;2024-03-25T01:13:39;100927.19;;;2.82;100.00
72157;BME280;60035;52.122;5.406;2024-03-25T01:16:11;100926.28;;;2.74;100.00
72157;BME280;60035;52.122;5.406;2024-03-25T01:18:42;100926.25;;;2.64;100.00
72157;BME280;60035;52.122;5.406;2024-03-25T01:21:10;100929.59;;;2.59;100.00
72157;BME280;60035;52.122;5.406;2024-03-25T01:23:39;100926.22;;;2.54;100.00
72157;BME280;60035;52.122;5.406;2024-03-25T01:26:07;100924.50;;;2.53;100.00
72157;BME280;60035;52.122;5.406;2024-03-25T01:28:39;100927.91;;;2.52;100.00
72157;BME280;60035;52.122;5.406;2024-03-25T01:31:07;100932.91;;;2.44;100.00
72157;BME280;60035;52.122;5.406;2024-03-25T01:33:39;100930.34;;;2.41;100.00
72157;BME280;60035;52.122;5.406;2024-03-25T01:36:07;100936.28;;;2.44;100.00
72157;BME280;60035;52.122;5.406;2024-03-25T01:38:38;100936.28;;;2.43;100.00
72157;BME280;60035;52.122;5.406;2024-03-25T01:41:10;100932.03;;;2.43;100.00
72157;BME280;60035;52.122;5.406;2024-03-25T01:43:39;100932.91;;;2.42;100.00
72157;BME280;60035;52.122;5.406;2024-03-25T01:46:14;100930.34;;;2.39;100.00
72157;BME280;60035;52.122;5.406;2024-03-25T01:48:46;100932.03;;;2.39;100.00
72157;BME280;60035;52.122;5.406;2024-03-25T01:51:17;100934.56;;;2.36;100.00
72157;BME280;60035;52.122;5.406;2024-03-25T01:53:47;100928.63;;;2.35;100.00
72157;BME280;60035;52.122;5.406;2024-03-25T01:56:16;100933.72;;;2.38;100.00
72157;BME280;60035;52.122;5.406;2024-03-25T01:58:45;100934.56;;;2.39;100.00
72157;BME280;60035;52.122;5.406;2024-03-25T02:01:17;100934.56;;;2.40;100.00
72157;BME280;60035;52.122;5.406;2024-03-25T02:03:47;100945.50;;;2.39;100.00
72157;BME280;60035;52.122;5.406;2024-03-25T02:06:21;100937.09;;;2.39;100.00
72157;BME280;60035;52.122;5.406;2024-03-25T02:08:52;100941.31;;;2.38;100.00
72157;BME280;60035;52.122;5.406;2024-03-25T02:11:21;100933.69;;;2.37;100.00
72157;BME280;60035;52.122;5.406;2024-03-25T02:13:51;100942.97;;;2.38;100.00
72157;BME280;60035;52.122;5.406;2024-03-25T02:16:21;100930.34;;;2.38;100.00
72157;BME280;60035;52.122;5.406;2024-03-25T02:18:50;100946.38;;;2.41;100.00
72157;BME280;60035;52.122;5.406;2024-03-25T02:21:21;100937.97;;;2.44;100.00
72157;BME280;60035;52.122;5.406;2024-03-25T02:23:55;100943.03;;;2.47;100.00
72157;BME280;60035;52.122;5.406;2024-03-25T02:26:24;100945.56;;;2.50;100.00
72157;BME280;60035;52.122;5.406;2024-03-25T02:28:53;100940.53;;;2.56;100.00
72157;BME280;60035;52.122;5.406;2024-03-25T02:31:21;100932.97;;;2.58;100.00
72157;BME280;60035;52.122;5.406;2024-03-25T02:33:49;100941.41;;;2.60;100.00
72157;BME280;60035;52.122;5.406;2024-03-25T02:36:18;100941.41;;;2.63;100.00
72157;BME280;60035;52.122;5.406;2024-03-25T02:38:47;100933.00;;;2.67;100.00
72157;BME280;60035;52.122;5.406;2024-03-25T02:41:22;100946.50;;;2.69;100.00
72157;BME280;60035;52.122;5.406;2024-03-25T02:43:52;100943.16;;;2.70;100.00
72157;BME280;60035;52.122;5.406;2024-03-25T02:46:21;100938.09;;;2.69;100.00
72157;BME280;60035;52.122;5.406;2024-03-25T02:48:49;100938.09;;;2.70;100.00
72157;BME280;60035;52.122;5.406;2024-03-25T02:51:18;100928.81;;;2.71;100.00
72157;BME280;60035;52.122;5.406;2024-03-25T02:53:46;100928.00;;;2.70;100.00
72157;BME280;60035;52.122;5.406;2024-03-25T02:56:15;100928.00;;;2.70;100.00
72157;BME280;60035;52.122;5.406;2024-03-25T02:58:43;100931.34;;;2.66;100.00
72157;BME280;60035;52.122;5.406;2024-03-25T03:01:11;100928.81;;;2.67;100.00
72157;BME280;60035;52.122;5.406;2024-03-25T03:03:40;100927.13;;;2.63;100.00
72157;BME280;60035;52.122;5.406;2024-03-25T03:06:08;100923.72;;;2.63;100.00
72157;BME280;60035;52.122;5.406;2024-03-25T03:08:37;100923.72;;;2.60;100.00
72157;BME280;60035;52.122;5.406;2024-03-25T03:11:05;100919.50;;;2.59;100.00
72157;BME280;60035;52.122;5.406;2024-03-25T03:13:36;100924.56;;;2.59;100.00
72157;BME280;60035;52.122;5.406;2024-03-25T03:16:04;100921.19;;;2.57;100.00
72157;BME280;60035;52.122;5.406;2024-03-25T03:18:35;100924.50;;;2.53;100.00
72157;BME280;60035;52.122;5.406;2024-03-25T03:21:06;100927.91;;;2.52;100.00
72157;BME280;60035;52.122;5.406;2024-03-25T03:23:36;100921.97;;;2.49;100.00
72157;BME280;60035;52.122;5.406;2024-03-25T03:26:05;100921.13;;;2.47;100.00
72157;BME280;60035;52.122;5.406;2024-03-25T03:28:33;100924.47;;;2.43;100.00
72157;BME280;60035;52.122;5.406;2024-03-25T03:31:01;100925.28;;;2.36;100.00
72157;BME280;60035;52.122;5.406;2024-03-25T03:33:31;100915.16;;;2.33;100.00
72157;BME280;60035;52.122;5.406;2024-03-25T03:35:59;100914.25;;;2.25;100.00
72157;BME280;60035;52.122;5.406;2024-03-25T03:38:30;100915.06;;;2.17;100.00
72157;BME280;60035;52.122;5.406;2024-03-25T03:40:59;100915.84;;;2.10;100.00
72157;BME280;60035;52.122;5.406;2024-03-25T03:43:28;100915.81;;;2.04;100.00
72157;BME280;60035;52.122;5.406;2024-03-25T03:45:56;100916.59;;;1.94;100.00
72157;BME280;60035;52.122;5.406;2024-03-25T03:48:25;100924.97;;;1.87;100.00
72157;BME280;60035;52.122;5.406;2024-03-25T03:50:53;100916.50;;;1.83;100.00
72157;BME280;60035;52.122;5.406;2024-03-25T03:53:22;100914.81;;;1.82;100.00
72157;BME280;60035;52.122;5.406;2024-03-25T03:55:59;100919.81;;;1.76;100.00
72157;BME280;60035;52.122;5.406;2024-03-25T03:58:33;100913.88;;;1.69;100.00
72157;BME280;60035;52.122;5.406;2024-03-25T04:01:01;100910.50;;;1.67;100.00
72157;BME280;60035;52.122;5.406;2024-03-25T04:03:31;100898.63;;;1.58;100.00
72157;BME280;60035;52.122;5.406;2024-03-25T04:06:07;100898.56;;;1.49;100.00
72157;BME280;60035;52.122;5.406;2024-03-25T04:08:36;100901.09;;;1.49;100.00
72157;BME280;60035;52.122;5.406;2024-03-25T04:11:05;100899.34;;;1.43;100.00
72157;BME280;60035;52.122;5.406;2024-03-25T04:13:34;100902.72;;;1.45;100.00
72157;BME280;60035;52.122;5.406;2024-03-25T04:16:04;100905.25;;;1.45;100.00
72157;BME280;60035;52.122;5.406;2024-03-25T04:18:33;100903.59;;;1.44;100.00
72157;BME280;60035;52.122;5.406;2024-03-25T04:21:02;100906.88;;;1.40;100.00
72157;BME280;60035;52.122;5.406;2024-03-25T04:23:30;100911.91;;;1.36;100.00
72157;BME280;60035;52.122;5.406;2024-03-25T04:26:01;100914.41;;;1.34;100.00
72157;BME280;60035;52.122;5.406;2024-03-25T04:28:30;100918.63;;;1.35;100.00
72157;BME280;60035;52.122;5.406;2024-03-25T04:30:58;100922.81;;;1.35;100.00
72157;BME280;60035;52.122;5.406;2024-03-25T04:33:26;100912.72;;;1.35;100.00
72157;BME280;60035;52.122;5.406;2024-03-25T04:35:55;100905.97;;;1.32;100.00
72157;BME280;60035;52.122;5.406;2024-03-25T04:38:23;100919.38;;;1.28;100.00
72157;BME280;60035;52.122;5.406;2024-03-25T04:40:52;100909.25;;;1.23;100.00
72157;BME280;60035;52.122;5.406;2024-03-25T04:43:21;100907.56;;;1.21;100.00
72157;BME280;60035;52.122;5.406;2024-03-25T04:45:50;100911.72;;;1.19;100.00
72157;BME280;60035;52.122;5.406;2024-03-25T04:48:18;100910.03;;;1.17;100.00
72157;BME280;60035;52.122;5.406;2024-03-25T04:50:46;100904.97;;;1.17;100.00
72157;BME280;60035;52.122;5.406;2024-03-25T04:53:15;100909.22;;;1.20;100.00
72157;BME280;60035;52.122;5.406;2024-03-25T04:55:44;100912.53;;;1.14;100.00
72157;BME280;60035;52.122;5.406;2024-03-25T04:58:12;100909.13;;;1.12;100.00
72157;BME280;60035;52.122;5.406;2024-03-25T05:00:40;100914.97;;;1.08;100.00
72157;BME280;60035;52.122;5.406;2024-03-25T05:03:11;100919.13;;;1.03;100.00
72157;BME280;60035;52.122;5.406;2024-03-25T05:05:39;100914.06;;;1.03;100.00
72157;BME280;60035;52.122;5.406;2024-03-25T05:08:08;100918.25;;;0.98;100.00
72157;BME280;60035;52.122;5.406;2024-03-25T05:10:36;100916.56;;;0.97;100.00
72157;BME280;60035;52.122;5.406;2024-03-25T05:13:05;100924.94;;;0.96;100.00
72157;BME280;60035;52.122;5.406;2024-03-25T05:15:33;100924.09;;;0.95;100.00
72157;BME280;60035;52.122;5.406;2024-03-25T05:18:02;100925.75;;;0.93;100.00
72157;BME280;60035;52.122;5.406;2024-03-25T05:20:30;100930.75;;;0.89;100.00
72157;BME280;60035;52.122;5.406;2024-03-25T05:23:00;100928.16;;;0.86;100.00
72157;BME280;60035;52.122;5.406;2024-03-25T05:25:29;100935.72;;;0.86;100.00
72157;BME280;60035;52.122;5.406;2024-03-25T05:28:00;100939.06;;;0.81;100.00
72157;BME280;60035;52.122;5.406;2024-03-25T05:30:28;100940.66;;;0.75;100.00
72157;BME280;60035;52.122;5.406;2024-03-25T05:32:57;100944.78;;;0.68;100.00
72157;BME280;60035;52.122;5.406;2024-03-25T05:35:25;100948.91;;;0.64;100.00
72157;BME280;60035;52.122;5.406;2024-03-25T05:37:58;100943.88;;;0.64;100.00
72157;BME280;60035;52.122;5.406;2024-03-25T05:40:29;100941.38;;;0.66;100.00
72157;BME280;60035;52.122;5.406;2024-03-25T05:42:58;100942.25;;;0.68;100.00
72157;BME280;60035;52.122;5.406;2024-03-25T05:45:26;100939.75;;;0.71;100.00
72157;BME280;60035;52.122;5.406;2024-03-25T05:47:55;100940.66;;;0.76;100.00
72157;BME280;60035;52.122;5.406;2024-03-25T05:50:23;100937.34;;;0.79;100.00
72157;BME280;60035;52.122;5.406;2024-03-25T05:52:51;100935.69;;;0.81;100.00
72157;BME280;60035;52.122;5.406;2024-03-25T05:55:20;100933.19;;;0.84;100.00
72157;BME280;60035;52.122;5.406;2024-03-25T05:57:48;100935.75;;;0.87;100.00
72157;BME280;60035;52.122;5.406;2024-03-25T06:00:16;100940.84;;;0.92;100.00
72157;BME280;60035;52.122;5.406;2024-03-25T06:02:48;100943.41;;;0.96;100.00
72157;BME280;60035;52.122;5.406;2024-03-25T06:05:17;100944.34;;;1.03;100.00
72157;BME280;60035;52.122;5.406;2024-03-25T06:07:45;100942.72;;;1.10;100.00
72157;BME280;60035;52.122;5.406;2024-03-25T06:10:14;100934.41;;;1.15;100.00
72157;BME280;60035;52.122;5.406;2024-03-25T06:12:42;100930.25;;;1.21;100.00
72157;BME280;60035;52.122;5.406;2024-03-25T06:15:11;100931.97;;;1.25;100.00
72157;BME280;60035;52.122;5.406;2024-03-25T06:17:42;100932.88;;;1.28;100.00
72157;BME280;60035;52.122;5.406;2024-03-25T06:20:14;100936.25;;;1.33;100.00
72157;BME280;60035;52.122;5.406;2024-03-25T06:22:42;100929.63;;;1.42;100.00
72157;BME280;60035;52.122;5.406;2024-03-25T06:25:13;100928.81;;;1.47;100.00
72157;BME280;60035;52.122;5.406;2024-03-25T06:27:44;100918.75;;;1.49;100.00
72157;BME280;60035;52.122;5.406;2024-03-25T06:30:14;100918.81;;;1.58;100.00
72157;BME280;60035;52.122;5.406;2024-03-25T06:33:03;100923.06;;;1.64;100.00
72157;BME280;60035;52.122;5.406;2024-03-25T06:35:49;100914.75;;;1.74;100.00
72157;BME280;60035;52.122;5.406;2024-03-25T06:38:20;100916.53;;;1.85;100.00
72157;BME280;60035;52.122;5.406;2024-03-25T06:40:49;100919.13;;;1.94;100.00
72157;BME280;60035;52.122;5.406;2024-03-25T06:43:21;100923.34;;;1.99;100.00
72157;BME280;60035;52.122;5.406;2024-03-25T06:45:49;100920.91;;;2.10;100.00
72157;BME280;60035;52.122;5.406;2024-03-25T06:48:17;100916.75;;;2.19;100.00
72157;BME280;60035;52.122;5.406;2024-03-25T06:51:12;100916.00;;;2.29;100.00
72157;BME280;60035;52.122;5.406;2024-03-25T06:53:47;100917.69;;;2.38;100.00
72157;BME280;60035;52.122;5.406;2024-03-25T06:56:18;100915.22;;;2.48;100.00
72157;BME280;60035;52.122;5.406;2024-03-25T06:58:47;100916.97;;;2.60;100.00
72157;BME280;60035;52.122;5.406;2024-03-25T07:01:15;100915.34;;;2.72;100.00
72157;BME280;60035;52.122;5.406;2024-03-25T07:03:44;100913.69;;;2.83;100.00
72157;BME280;60035;52.122;5.406;2024-03-25T07:06:17;100919.63;;;2.96;100.00
72157;BME280;60035;52.122;5.406;2024-03-25T07:08:45;100912.09;;;3.08;100.00
72157;BME280;60035;52.122;5.406;2024-03-25T07:11:15;100912.13;;;3.21;100.00
72157;BME280;60035;52.122;5.406;2024-03-25T07:13:43;100917.19;;;3.33;100.00
72157;BME280;60035;52.122;5.406;2024-03-25T07:16:12;100913.84;;;3.45;100.00
72157;BME280;60035;52.122;5.406;2024-03-25T07:18:40;100913.00;;;3.57;100.00
72157;BME280;60035;52.122;5.406;2024-03-25T07:21:09;100911.34;;;3.68;100.00
72157;BME280;60035;52.122;5.406;2024-03-25T07:23:38;100913.84;;;3.79;100.00
72157;BME280;60035;52.122;5.406;2024-03-25T07:26:07;100915.53;;;3.94;100.00
72157;BME280;60035;52.122;5.406;2024-03-25T07:28:35;100911.28;;;4.07;100.00
72157;BME280;60035;52.122;5.406;2024-03-25T07:31:03;100910.41;;;4.22;100.00
72157;BME280;60035;52.122;5.406;2024-03-25T07:33:32;100907.88;;;4.34;100.00
72157;BME280;60035;52.122;5.406;2024-03-25T07:36:00;100914.59;;;4.47;100.00
72157;BME280;60035;52.122;5.406;2024-03-25T07:38:28;100908.66;;;4.58;100.00
72157;BME280;60035;52.122;5.406;2024-03-25T07:41:03;100915.34;;;4.73;100.00
72157;BME280;60035;52.122;5.406;2024-03-25T07:43:32;100916.13;;;4.86;100.00
72157;BME280;60035;52.122;5.406;2024-03-25T07:46:04;100908.44;;;5.01;100.00
72157;BME280;60035;52.122;5.406;2024-03-25T07:48:34;100908.38;;;5.13;100.00
72157;BME280;60035;52.122;5.406;2024-03-25T07:51:03;100919.28;;;5.25;100.00
72157;BME280;60035;52.122;5.406;2024-03-25T07:53:34;100912.47;;;5.36;100.00
72157;BME280;60035;52.122;5.406;2024-03-25T07:56:04;100911.53;;;5.48;100.00
72157;BME280;60035;52.122;5.406;2024-03-25T07:58:36;100908.03;;;5.61;100.00
72157;BME280;60035;52.122;5.406;2024-03-25T08:01:04;100907.94;;;5.72;100.00
72157;BME280;60035;52.122;5.406;2024-03-25T08:03:33;100911.25;;;5.80;100.00
72157;BME280;60035;52.122;5.406;2024-03-25T08:06:01;100912.03;;;5.89;100.00
72157;BME280;60035;52.122;5.406;2024-03-25T08:08:30;100917.06;;;5.98;100.00
72157;BME280;60035;52.122;5.406;2024-03-25T08:10:59;100910.22;;;6.06;100.00
72157;BME280;60035;52.122;5.406;2024-03-25T08:13:27;100919.44;;;6.18;100.00
72157;BME280;60035;52.122;5.406;2024-03-25T08:15:56;100918.47;;;6.28;100.00
72157;BME280;60035;52.122;5.406;2024-03-25T08:18:24;100920.88;;;6.41;100.00
72157;BME280;60035;52.122;5.406;2024-03-25T08:20:55;100925.81;;;6.53;100.00
72157;BME280;60035;52.122;5.406;2024-03-25T08:23:26;100927.41;;;6.63;100.00
72157;BME280;60035;52.122;5.406;2024-03-25T08:25:55;100930.69;;;6.72;100.00
72157;BME280;60035;52.122;5.406;2024-03-25T08:28:26;100927.16;;;6.83;100.00
72157;BME280;60035;52.122;5.406;2024-03-25T08:30:57;100929.47;;;7.02;100.00
72157;BME280;60035;52.122;5.406;2024-03-25T08:33:33;100925.88;;;7.17;100.00
72157;BME280;60035;52.122;5.406;2024-03-25T08:36:01;100917.22;;;7.27;100.00
72157;BME280;60035;52.122;5.406;2024-03-25T08:38:32;100923.88;;;7.38;100.00
72157;BME280;60035;52.122;5.406;2024-03-25T08:41:00;100922.00;;;7.50;100.00
72157;BME280;60035;52.122;5.406;2024-03-25T08:43:29;100917.47;;;7.68;100.00
72157;BME280;60035;52.122;5.406;2024-03-25T08:45:59;100924.13;;;7.77;100.00
72157;BME280;60035;52.122;5.406;2024-03-25T08:48:28;100918.31;;;7.67;100.00
72157;BME280;60035;52.122;5.406;2024-03-25T08:50:57;100921.63;;;7.72;100.00
72157;BME280;60035;52.122;5.406;2024-03-25T08:53:27;100914.75;;;7.77;100.00
72157;BME280;60035;52.122;5.406;2024-03-25T08:55:56;100917.13;;;7.88;100.00
72157;BME280;60035;52.122;5.406;2024-03-25T08:58:24;100919.59;;;7.93;100.00
72157;BME280;60035;52.122;5.406;2024-03-25T09:00:55;100915.41;;;7.90;100.00
72157;BME280;60035;52.122;5.406;2024-03-25T09:03:24;100913.53;;;8.00;100.00
72157;BME280;60035;52.122;5.406;2024-03-25T09:05:57;100906.63;;;8.05;100.00
72157;BME280;60035;52.122;5.406;2024-03-25T09:08:29;100903.84;;;8.17;100.00
72157;BME280;60035;52.122;5.406;2024-03-25T09:11:06;100899.38;;;8.30;100.00
72157;BME280;60035;52.122;5.406;2024-03-25T09:13:36;100899.19;;;8.40;100.00
72157;BME280;60035;52.122;5.406;2024-03-25T09:16:10;100900.00;;;8.42;100.00
72157;BME280;60035;52.122;5.406;2024-03-25T09:18:38;100897.34;;;8.49;100.00
72157;BME280;60035;52.122;5.406;2024-03-25T09:21:14;100898.06;;;8.56;100.00
72157;BME280;60035;52.122;5.406;2024-03-25T09:23:48;100898.81;;;8.61;100.00
72157;BME280;60035;52.122;5.406;2024-03-25T09:26:16;100901.16;;;8.71;100.00
72157;BME280;60035;52.122;5.406;2024-03-25T09:28:48;100907.03;;;8.74;100.00
72157;BME280;60035;52.122;5.406;2024-03-25T09:31:19;100901.59;;;8.90;100.00
72157;BME280;60035;52.122;5.406;2024-03-25T09:33:50;100897.22;;;8.96;100.00
72157;BME280;60035;52.122;5.406;2024-03-25T09:36:19;100901.41;;;8.99;100.00
72157;BME280;60035;52.122;5.406;2024-03-25T09:38:51;100904.09;;;8.93;100.00
72157;BME280;60035;52.122;5.406;2024-03-25T09:41:22;100905.50;;;9.08;100.00
72157;BME280;60035;52.122;5.406;2024-03-25T09:43:54;100892.38;;;9.22;100.00
72157;BME280;60035;52.122;5.406;2024-03-25T09:46:26;100889.56;;;9.32;100.00
72157;BME280;60035;52.122;5.406;2024-03-25T09:48:54;100878.25;;;9.43;100.00
72157;BME280;60035;52.122;5.406;2024-03-25T09:51:23;100884.69;;;9.59;100.00
72157;BME280;60035;52.122;5.406;2024-03-25T09:53:51;100886.81;;;9.76;100.00
72157;BME280;60035;52.122;5.406;2024-03-25T09:56:22;100882.03;;;9.97;100.00
72157;BME280;60035;52.122;5.406;2024-03-25T09:58:51;100879.84;;;10.14;100.00
72157;BME280;60035;52.122;5.406;2024-03-25T10:01:22;100878.72;;;10.25;100.00
72157;BME280;60035;52.122;5.406;2024-03-25T10:03:50;100868.31;;;10.31;100.00
72157;BME280;60035;52.122;5.406;2024-03-25T10:06:19;100869.41;;;10.22;100.00
72157;BME280;60035;52.122;5.406;2024-03-25T10:08:47;100861.22;;;10.09;100.00
72157;BME280;60035;52.122;5.406;2024-03-25T10:11:16;100862.06;;;10.10;100.00
72157;BME280;60035;52.122;5.406;2024-03-25T10:13:45;100858.91;;;10.02;100.00
72157;BME280;60035;52.122;5.406;2024-03-25T10:16:15;100848.25;;;9.84;100.00
72157;BME280;60035;52.122;5.406;2024-03-25T10:18:44;100846.66;;;9.80;100.00
72157;BME280;60035;52.122;5.406;2024-03-25T10:21:12;100847.28;;;9.90;100.00
72157;BME280;60035;52.122;5.406;2024-03-25T10:23:43;100851.22;;;10.02;100.00
72157;BME280;60035;52.122;5.406;2024-03-25T10:26:26;100850.44;;;9.98;100.00
72157;BME280;60035;52.122;5.406;2024-03-25T10:29:10;100840.50;;;9.87;100.00
72157;BME280;60035;52.122;5.406;2024-03-25T10:31:38;100841.75;;;10.04;100.00
72157;BME280;60035;52.122;5.406;2024-03-25T10:34:11;100842.19;;;10.20;100.00
72157;BME280;60035;52.122;5.406;2024-03-25T10:36:39;100838.53;;;10.28;100.00
72157;BME280;60035;52.122;5.406;2024-03-25T10:39:08;100833.66;;;10.50;100.00
72157;BME280;60035;52.122;5.406;2024-03-25T10:41:37;100829.75;;;10.67;100.00
72157;BME280;60035;52.122;5.406;2024-03-25T10:44:09;100826.81;;;10.79;100.00
72157;BME280;60035;52.122;5.406;2024-03-25T10:46:38;100829.09;;;10.89;100.00
72157;BME280;60035;52.122;5.406;2024-03-25T10:49:33;100823.56;;;11.03;100.00
72157;BME280;60035;52.122;5.406;2024-03-25T10:52:05;100819.25;;;11.03;100.00
72157;BME280;60035;52.122;5.406;2024-03-25T10:54:35;100809.31;;;11.21;100.00
72157;BME280;60035;52.122;5.406;2024-03-25T10:57:07;100803.56;;;11.39;100.00
72157;BME280;60035;52.122;5.406;2024-03-25T10:59:37;100810.78;;;11.53;100.00
72157;BME280;60035;52.122;5.406;2024-03-25T11:02:09;100807.91;;;11.62;100.00
72157;BME280;60035;52.122;5.406;2024-03-25T11:04:38;100800.38;;;11.83;100.00
72157;BME280;60035;52.122;5.406;2024-03-25T11:07:14;100796.91;;;11.84;100.00
72157;BME280;60035;52.122;5.406;2024-03-25T11:09:43;100792.06;;;11.76;100.00
72157;BME280;60035;52.122;5.406;2024-03-25T11:12:16;100798.84;;;11.77;100.00
72157;BME280;60035;52.122;5.406;2024-03-25T11:14:56;100792.06;;;11.76;100.00
72157;BME280;60035;52.122;5.406;2024-03-25T11:17:25;100787.41;;;11.86;100.00
72157;BME280;60035;52.122;5.406;2024-03-25T11:19:54;100793.28;;;11.90;100.00
72157;BME280;60035;52.122;5.406;2024-03-25T11:22:25;100792.09;;;12.00;100.00
72157;BME280;60035;52.122;5.406;2024-03-25T11:24:57;100789.00;;;12.14;100.00
72157;BME280;60035;52.122;5.406;2024-03-25T11:27:26;100774.00;;;12.27;100.00
72157;BME280;60035;52.122;5.406;2024-03-25T11:29:57;100770.94;;;12.39;100.00
72157;BME280;60035;52.122;5.406;2024-03-25T11:32:26;100773.81;;;12.54;100.00
72157;BME280;60035;52.122;5.406;2024-03-25T11:34:59;100770.78;;;12.44;99.08
72157;BME280;60035;52.122;5.406;2024-03-25T11:37:28;100775.63;;;12.06;95.94
72157;BME280;60035;52.122;5.406;2024-03-25T11:40:04;100772.56;;;11.71;96.25
72157;BME280;60035;52.122;5.406;2024-03-25T11:42:34;100770.78;;;11.73;99.28
72157;BME280;60035;52.122;5.406;2024-03-25T11:45:03;100760.75;;;11.66;97.36
72157;BME280;60035;52.122;5.406;2024-03-25T11:47:32;100758.94;;;11.94;99.56
72157;BME280;60035;52.122;5.406;2024-03-25T11:50:07;100751.47;;;12.11;95.85
72157;BME280;60035;52.122;5.406;2024-03-25T11:52:36;100751.31;;;12.16;97.69
72157;BME280;60035;52.122;5.406;2024-03-25T11:55:04;100744.00;;;12.27;99.23
72157;BME280;60035;52.122;5.406;2024-03-25T11:57:33;100742.53;;;12.22;100.00
72157;BME280;60035;52.122;5.406;2024-03-25T12:00:02;100731.91;;;12.53;100.00
72157;BME280;60035;52.122;5.406;2024-03-25T12:02:45;100733.75;;;12.92;100.00
72157;BME280;60035;52.122;5.406;2024-03-25T12:05:17;100722.06;;;13.26;99.55
72157;BME280;60035;52.122;5.406;2024-03-25T12:07:45;100719.84;;;13.39;92.29
72157;BME280;60035;52.122;5.406;2024-03-25T12:10:16;100715.88;;;13.30;91.74
72157;BME280;60035;52.122;5.406;2024-03-25T12:13:08;100709.34;;;13.23;91.22
72157;BME280;60035;52.122;5.406;2024-03-25T12:15:41;100702.09;;;13.12;90.54
72157;BME280;60035;52.122;5.406;2024-03-25T12:18:14;100703.31;;;13.24;84.66
72157;BME280;60035;52.122;5.406;2024-03-25T12:20:45;100702.41;;;13.46;84.51
72157;BME280;60035;52.122;5.406;2024-03-25T12:23:15;100699.91;;;13.63;82.56
72157;BME280;60035;52.122;5.406;2024-03-25T12:25:49;100690.47;;;13.64;83.43
72157;BME280;60035;52.122;5.406;2024-03-25T12:28:17;100691.84;;;13.31;82.09
72157;BME280;60035;52.122;5.406;2024-03-25T12:30:50;100687.09;;;13.02;82.23
72157;BME280;60035;52.122;5.406;2024-03-25T12:33:19;100682.69;;;13.05;85.16
72157;BME280;60035;52.122;5.406;2024-03-25T12:35:50;100680.84;;;13.28;79.00
72157;BME280;60035;52.122;5.406;2024-03-25T12:38:29;100681.66;;;12.89;75.62
72157;BME280;60035;52.122;5.406;2024-03-25T12:41:12;100685.97;;;12.45;77.22
72157;BME280;60035;52.122;5.406;2024-03-25T12:43:45;100686.81;;;12.46;79.64
72157;BME280;60035;52.122;5.406;2024-03-25T12:46:13;100673.50;;;12.79;76.34
72157;BME280;60035;52.122;5.406;2024-03-25T12:48:42;100674.72;;;12.91;75.64
72157;BME280;60035;52.122;5.406;2024-03-25T12:51:16;100664.91;;;13.00;80.48
72157;BME280;60035;52.122;5.406;2024-03-25T12:53:45;100666.91;;;12.94;75.85
72157;BME280;60035;52.122;5.406;2024-03-25T12:56:13;100668.94;;;12.65;74.00
72157;BME280;60035;52.122;5.406;2024-03-25T12:58:42;100672.13;;;12.49;72.41
72157;BME280;60035;52.122;5.406;2024-03-25T13:01:10;100661.91;;;12.48;72.60
72157;BME280;60035;52.122;5.406;2024-03-25T13:03:39;100656.09;;;12.65;71.23